createdAt,value
2022-08-18T00:00:20.128Z,101014.88
2022-08-18T00:02:29.895Z,101005.88
2022-08-18T00:04:48.778Z,101008.56
2022-08-18T00:06:54.533Z,100995.94
2022-08-18T00:08:59.573Z,100994.09
2022-08-18T00:11:03.207Z,100991.56
2022-08-18T00:13:06.891Z,100997.88
2022-08-18T00:15:12.720Z,100990.84
2022-08-18T00:17:16.561Z,100989.88
2022-08-18T00:19:20.281Z,100993.50
2022-08-18T00:21:43.740Z,100980.88
2022-08-18T00:23:48.998Z,100978.91
2022-08-18T00:25:52.613Z,100978.91
2022-08-18T00:27:56.493Z,100972.75
2022-08-18T00:30:02.811Z,100970.06
2022-08-18T00:32:14.656Z,100966.56
2022-08-18T00:34:18.627Z,100966.69
2022-08-18T00:36:22.203Z,100953.44
2022-08-18T00:38:25.835Z,100955.41
2022-08-18T00:40:37.819Z,100959.91
2022-08-18T00:42:45.448Z,100952.75
2022-08-18T00:44:49.515Z,100944.00
2022-08-18T00:46:53.059Z,100945.97
2022-08-18T00:48:57.096Z,100935.41
2022-08-18T00:51:04.951Z,100940.63
2022-08-18T00:53:14.434Z,100939.66
2022-08-18T00:55:19.623Z,100935.97
2022-08-18T00:57:26.876Z,100935.88
2022-08-18T00:59:36.872Z,100930.41
2022-08-18T01:01:43.216Z,100927.75
2022-08-18T01:03:54.050Z,100927.88
2022-08-18T01:06:03.247Z,100925.06
2022-08-18T01:08:10.595Z,100918.84
2022-08-18T01:10:17.103Z,100919.72
2022-08-18T01:12:45.430Z,100912.69
2022-08-18T01:14:48.337Z,100904.81
2022-08-18T01:17:09.986Z,100912.94
2022-08-18T01:19:30.949Z,100901.66
2022-08-18T01:21:53.847Z,100903.50
2022-08-18T01:24:00.130Z,100902.75
2022-08-18T01:26:03.954Z,100902.75
2022-08-18T01:28:08.254Z,100896.59
2022-08-18T01:30:18.402Z,100900.09
2022-08-18T01:32:24.930Z,100893.06
2022-08-18T01:34:28.841Z,100892.09
2022-08-18T01:36:32.826Z,100888.72
2022-08-18T01:38:36.494Z,100894.06
2022-08-18T01:41:24.376Z,100883.38
2022-08-18T01:43:05.605Z,100878.03
2022-08-18T01:45:10.829Z,100872.69
2022-08-18T01:47:14.442Z,100880.69
2022-08-18T01:49:20.143Z,100874.50
2022-08-18T01:51:39.723Z,100877.16
2022-08-18T01:53:45.340Z,100876.19
2022-08-18T01:55:50.449Z,100862.84
2022-08-18T01:57:53.995Z,100857.50
2022-08-18T01:59:57.987Z,100855.81
2022-08-18T02:02:01.980Z,100856.78
2022-08-18T02:04:33.717Z,100846.22
2022-08-18T02:06:33.738Z,100840.88
2022-08-18T02:08:38.231Z,100844.56
2022-08-18T02:10:45.791Z,100839.31
2022-08-18T02:12:50.791Z,100842.13
2022-08-18T02:14:54.371Z,100837.78
2022-08-18T02:17:02.493Z,100835.94
2022-08-18T02:19:06.727Z,100834.97
2022-08-18T02:21:12.747Z,100841.03
2022-08-18T02:23:17.955Z,100837.50
2022-08-18T02:25:22.169Z,100836.53
2022-08-18T02:27:25.682Z,100829.25
2022-08-18T02:29:31.299Z,100825.47
2022-08-18T02:31:34.881Z,100819.28
2022-08-18T02:33:38.698Z,100812.94
2022-08-18T02:35:44.145Z,100814.66
2022-08-18T02:37:48.530Z,100815.63
2022-08-18T02:39:52.496Z,100799.59
2022-08-18T02:41:56.182Z,100798.91
2022-08-18T02:44:00.251Z,100797.34
2022-08-18T02:46:05.879Z,100794.06
2022-08-18T02:48:09.382Z,100792.63
2022-08-18T02:50:13.998Z,100791.94
2022-08-18T02:52:17.727Z,100793.88
2022-08-18T02:54:23.387Z,100791.34
2022-08-18T02:56:32.690Z,100783.72
2022-08-18T02:58:44.586Z,100787.38
2022-08-18T03:00:48.189Z,100773.19
2022-08-18T03:02:53.681Z,100782.03
2022-08-18T03:04:57.156Z,100777.66
2022-08-18T03:07:05.285Z,100777.66
2022-08-18T03:09:10.840Z,100766.97
2022-08-18T03:11:14.162Z,100769.78
2022-08-18T03:13:17.372Z,100765.31
2022-08-18T03:15:20.723Z,100770.75
2022-08-18T03:17:24.286Z,100766.28
2022-08-18T03:19:30.321Z,100759.09
2022-08-18T03:21:35.805Z,100753.63
2022-08-18T03:23:40.410Z,100757.03
2022-08-18T03:25:48.652Z,100756.78
2022-08-18T03:27:51.990Z,100749.50
2022-08-18T03:29:55.864Z,100746.69
2022-08-18T03:32:02.464Z,100747.53
2022-08-18T03:34:08.517Z,100738.53
2022-08-18T03:36:16.102Z,100745.59
2022-08-18T03:38:19.455Z,100743.63
2022-08-18T03:40:22.906Z,100746.00
2022-08-18T03:42:26.202Z,100745.03
2022-08-18T03:44:31.621Z,100752.09
2022-08-18T03:46:34.948Z,100744.78
2022-08-18T03:48:39.889Z,100739.44
2022-08-18T03:50:43.331Z,100740.28
2022-08-18T03:52:48.732Z,100735.09
2022-08-18T03:54:52.113Z,100732.44
2022-08-18T03:56:55.576Z,100736.91
2022-08-18T03:59:01.525Z,100738.72
2022-08-18T04:01:04.862Z,100727.31
2022-08-18T04:03:09.473Z,100732.53
2022-08-18T04:05:14.163Z,100727.31
2022-08-18T04:07:18.935Z,100725.66
2022-08-18T04:09:25.744Z,100718.47
2022-08-18T04:11:29.901Z,100716.78
2022-08-18T04:13:40.450Z,100715.22
2022-08-18T04:15:43.709Z,100711.72
2022-08-18T04:18:03.205Z,100710.97
2022-08-18T04:20:08.113Z,100710.97
2022-08-18T04:22:11.497Z,100716.22
2022-08-18T04:24:21.730Z,100713.56
2022-08-18T04:26:26.636Z,100721.41
2022-08-18T04:28:30.535Z,100719.44
2022-08-18T04:30:33.830Z,100704.31
2022-08-18T04:32:37.144Z,100690.94
2022-08-18T04:34:40.689Z,100687.41
2022-08-18T04:36:44.703Z,100696.41
2022-08-18T04:38:47.937Z,100701.72
2022-08-18T04:40:51.855Z,100706.09
2022-08-18T04:42:56.651Z,100705.13
2022-08-18T04:44:59.979Z,100704.16
2022-08-18T04:47:03.256Z,100701.50
2022-08-18T04:49:06.789Z,100695.28
2022-08-18T04:51:12.067Z,100705.00
2022-08-18T04:53:47.090Z,100702.19
2022-08-18T04:55:51.862Z,100696.00
2022-08-18T04:57:58.197Z,100699.53
2022-08-18T05:00:01.677Z,100703.06
2022-08-18T05:02:11.499Z,100693.22
2022-08-18T05:04:18.794Z,100687.88
2022-08-18T05:06:25.837Z,100680.97
2022-08-18T05:08:29.656Z,100684.63
2022-08-18T05:10:33.183Z,100678.44
2022-08-18T05:12:36.602Z,100667.75
2022-08-18T05:14:41.908Z,100673.94
2022-08-18T05:16:48.573Z,100673.09
2022-08-18T05:18:53.481Z,100677.59
2022-08-18T05:20:57.754Z,100680.28
2022-08-18T05:23:02.571Z,100681.25
2022-08-18T05:25:06.673Z,100680.38
2022-08-18T05:27:09.957Z,100684.88
2022-08-18T05:29:18.938Z,100676.88
2022-08-18T05:31:26.438Z,100672.50
2022-08-18T05:33:29.677Z,100666.19
2022-08-18T05:35:42.577Z,100661.59
2022-08-18T05:38:00.834Z,100664.94
2022-08-18T05:40:11.442Z,100656.81
2022-08-18T05:42:18.935Z,100652.34
2022-08-18T05:44:27.396Z,100648.66
2022-08-18T05:46:40.196Z,100652.06
2022-08-18T05:48:44.010Z,100660.91
2022-08-18T05:50:47.503Z,100665.28
2022-08-18T05:52:59.330Z,100661.50
2022-08-18T05:55:24.823Z,100651.78
2022-08-18T05:57:32.463Z,100650.81
2022-08-18T05:59:38.618Z,100641.09
2022-08-18T06:01:47.909Z,100648.13
2022-08-18T06:03:56.780Z,100635.63
2022-08-18T06:06:03.956Z,100640.00
2022-08-18T06:08:10.462Z,100649.56
2022-08-18T06:10:15.108Z,100639.72
2022-08-18T06:12:27.042Z,100630.72
2022-08-18T06:14:31.327Z,100627.91
2022-08-18T06:16:50.558Z,100625.97
2022-08-18T06:19:01.501Z,100622.31
2022-08-18T06:21:27.810Z,100634.41
2022-08-18T06:23:40.610Z,100620.06
2022-08-18T06:26:04.670Z,100623.47
2022-08-18T06:28:10.926Z,100615.88
2022-08-18T06:30:21.085Z,100612.94
2022-08-18T06:32:34.747Z,100616.16
2022-08-18T06:34:54.628Z,100621.13
2022-08-18T06:37:09.617Z,100616.31
2022-08-18T06:39:24.071Z,100612.53
2022-08-18T06:41:41.566Z,100617.63
2022-08-18T06:44:00.549Z,100612.69
2022-08-18T06:46:09.188Z,100611.44
2022-08-18T06:48:19.304Z,100609.19
2022-08-18T06:50:28.419Z,100615.13
2022-08-18T06:52:34.805Z,100609.47
2022-08-18T06:54:51.233Z,100610.09
2022-08-18T06:56:56.809Z,100613.44
2022-08-18T06:59:20.243Z,100607.13
2022-08-18T07:01:26.155Z,100601.34
2022-08-18T07:03:45.523Z,100612.31
2022-08-18T07:06:01.631Z,100611.06
2022-08-18T07:08:13.254Z,100621.47
2022-08-18T07:10:32.894Z,100611.34
2022-08-18T07:12:36.476Z,100606.56
2022-08-18T07:14:48.305Z,100621.63
2022-08-18T07:16:59.044Z,100617.66
2022-08-18T07:19:09.553Z,100605.22
2022-08-18T07:21:28.854Z,100605.75
2022-08-18T07:23:35.210Z,100610.91
2022-08-18T07:25:42.332Z,100621.59
2022-08-18T07:27:49.433Z,100606.66
2022-08-18T07:30:05.970Z,100612.97
2022-08-18T07:32:20.964Z,100609.84
2022-08-18T07:34:37.514Z,100603.88
2022-08-18T07:36:48.539Z,100601.06
2022-08-18T07:38:57.209Z,100599.91
2022-08-18T07:41:04.777Z,100599.25
2022-08-18T07:43:13.616Z,100607.72
2022-08-18T07:45:24.037Z,100602.66
2022-08-18T07:47:33.764Z,100604.66
2022-08-18T07:49:46.032Z,100610.69
2022-08-18T07:52:07.209Z,100606.16
2022-08-18T07:54:51.404Z,100608.09
2022-08-18T07:57:03.014Z,100602.16
2022-08-18T07:59:17.565Z,100604.63
2022-08-18T08:01:27.214Z,100604.72
2022-08-18T08:03:40.188Z,100600.75
2022-08-18T08:05:56.174Z,100598.06
2022-08-18T08:08:05.402Z,100593.84
2022-08-18T08:10:26.566Z,100585.25
2022-08-18T08:12:46.006Z,100581.75
2022-08-18T08:14:52.103Z,100580.91
2022-08-18T08:17:05.190Z,100586.78
2022-08-18T08:19:58.986Z,100585.81
2022-08-18T08:22:05.405Z,100584.50
2022-08-18T08:24:18.314Z,100588.72
2022-08-18T08:26:33.965Z,100586.75
2022-08-18T08:28:56.247Z,100576.56
2022-08-18T08:31:35.367Z,100577.41
2022-08-18T08:33:39.886Z,100564.94
2022-08-18T08:35:50.019Z,100567.22
2022-08-18T08:38:04.867Z,100569.50
2022-08-18T08:40:24.682Z,100559.03
2022-08-18T08:42:40.503Z,100554.84
2022-08-18T08:44:59.341Z,100547.94
2022-08-18T08:47:08.534Z,100549.78
2022-08-18T08:49:31.596Z,100555.97
2022-08-18T08:51:40.626Z,100555.81
2022-08-18T08:53:51.163Z,100552.97
2022-08-18T08:56:02.248Z,100552.53
2022-08-18T08:58:20.657Z,100561.63
2022-08-18T09:00:29.933Z,100558.19
2022-08-18T09:02:59.772Z,100560.91
2022-08-18T09:05:11.419Z,100559.28
2022-08-18T09:07:30.502Z,100557.66
2022-08-18T09:10:15.104Z,100547.28
2022-08-18T09:12:43.569Z,100547.94
2022-08-18T09:15:11.183Z,100542.13
2022-08-18T09:17:44.273Z,100541.63
2022-08-18T09:20:00.470Z,100540.63
2022-08-18T09:22:14.160Z,100539.66
2022-08-18T09:24:25.926Z,100531.25
2022-08-18T09:26:45.380Z,100522.88
2022-08-18T09:29:00.183Z,100524.06
2022-08-18T09:31:20.068Z,100522.75
2022-08-18T09:33:34.961Z,100524.63
2022-08-18T09:36:00.864Z,100512.78
2022-08-18T09:38:30.418Z,100512.31
2022-08-18T09:41:02.716Z,100516.06
2022-08-18T09:43:15.562Z,100515.44
2022-08-18T09:45:55.676Z,100530.41
2022-08-18T09:48:25.352Z,100528.41
2022-08-18T09:50:53.357Z,100517.13
2022-08-18T09:53:02.415Z,100508.06
2022-08-18T09:55:30.135Z,100501.34
2022-08-18T09:57:42.323Z,100500.81
2022-08-18T10:00:26.539Z,100490.41
2022-08-18T10:03:11.767Z,100475.28
2022-08-18T10:05:37.489Z,100480.16
2022-08-18T10:07:44.169Z,100472.09
2022-08-18T10:09:59.141Z,100473.94
2022-08-18T10:12:19.534Z,100466.38
2022-08-18T10:14:40.576Z,100477.31
2022-08-18T10:17:21.256Z,100468.72
2022-08-18T10:19:34.004Z,100472.78
2022-08-18T10:22:05.215Z,100468.75
2022-08-18T10:24:35.926Z,100468.06
2022-08-18T10:27:11.022Z,100469.72
2022-08-18T10:29:51.800Z,100464.31
2022-08-18T10:32:25.242Z,100452.72
2022-08-18T10:34:39.153Z,100451.31
2022-08-18T10:36:54.377Z,100461.69
2022-08-18T10:39:06.604Z,100454.09
2022-08-18T10:41:16.440Z,100447.47
2022-08-18T10:43:55.304Z,100455.56
2022-08-18T10:46:24.630Z,100449.47
2022-08-18T10:48:24.411Z,100443.38
2022-08-18T10:50:34.315Z,100455.47
2022-08-18T10:53:16.942Z,100459.66
2022-08-18T10:55:47.945Z,100451.03
2022-08-18T10:58:10.499Z,100445.66
2022-08-18T11:00:19.534Z,100433.22
2022-08-18T11:02:42.163Z,100429.47
2022-08-18T11:04:58.557Z,100426.63
2022-08-18T11:07:08.707Z,100428.66
2022-08-18T11:09:13.042Z,100432.53
2022-08-18T11:11:33.598Z,100433.09
2022-08-18T11:13:56.436Z,100422.53
2022-08-18T11:16:13.348Z,100426.25
2022-08-18T11:18:32.551Z,100416.34
2022-08-18T11:20:43.586Z,100423.28
2022-08-18T11:22:54.968Z,100419.09
2022-08-18T11:24:59.476Z,100423.66
2022-08-18T11:27:09.579Z,100417.06
2022-08-18T11:29:21.927Z,100416.72
2022-08-18T11:31:25.657Z,100413.84
2022-08-18T11:33:29.885Z,100415.16
2022-08-18T11:35:47.498Z,100406.91
2022-08-18T11:37:57.220Z,100401.16
2022-08-18T11:40:03.524Z,100394.13
2022-08-18T11:42:15.977Z,100398.19
2022-08-18T11:44:32.085Z,100397.19
2022-08-18T11:46:41.015Z,100384.97
2022-08-18T11:48:52.401Z,100391.41
2022-08-18T11:51:03.510Z,100399.34
2022-08-18T11:53:19.149Z,100400.72
2022-08-18T11:55:33.941Z,100402.22
2022-08-18T11:57:59.406Z,100389.41
2022-08-18T12:00:44.300Z,100395.94
2022-08-18T12:02:48.686Z,100398.47
2022-08-18T12:04:55.145Z,100398.63
2022-08-18T12:07:08.389Z,100390.91
2022-08-18T12:09:36.929Z,100392.28
2022-08-18T12:11:53.795Z,100393.81
2022-08-18T12:14:29.894Z,100396.00
2022-08-18T12:16:36.842Z,100392.84
2022-08-18T12:18:40.876Z,100395.88
2022-08-18T12:20:45.474Z,100391.00
2022-08-18T12:22:58.085Z,100397.94
2022-08-18T12:25:01.806Z,100391.22
2022-08-18T12:31:56.083Z,100392.94
2022-08-18T12:34:02.615Z,100391.41
2022-08-18T12:36:07.117Z,100384.84
2022-08-18T12:38:13.145Z,100375.94
2022-08-18T12:40:18.161Z,100383.00
2022-08-18T12:42:23.386Z,100379.63
2022-08-18T12:44:27.499Z,100380.84
2022-08-18T12:46:33.537Z,100377.47
2022-08-18T12:48:39.593Z,100365.34
2022-08-18T12:50:54.583Z,100361.13
2022-08-18T12:53:02.451Z,100373.25
2022-08-18T12:55:21.984Z,100370.56
2022-08-18T12:57:33.287Z,100368.22
2022-08-18T12:59:52.821Z,100373.59
2022-08-18T13:01:59.762Z,100369.91
2022-08-18T13:04:13.059Z,100370.91
2022-08-18T13:06:17.917Z,100368.56
2022-08-18T13:08:30.262Z,100376.59
2022-08-18T13:10:46.733Z,100374.91
2022-08-18T13:12:50.817Z,100371.81
2022-08-18T13:14:55.283Z,100366.72
2022-08-18T13:17:00.581Z,100368.84
2022-08-18T13:19:06.096Z,100365.97
2022-08-18T13:21:10.751Z,100364.59
2022-08-18T13:23:14.196Z,100366.09
2022-08-18T13:25:32.006Z,100360.72
2022-08-18T13:27:43.604Z,100351.72
2022-08-18T13:29:49.019Z,100336.22
2022-08-18T13:31:58.292Z,100338.66
2022-08-18T13:34:04.174Z,100335.34
2022-08-18T13:36:08.693Z,100325.19
2022-08-18T13:38:14.521Z,100321.41
2022-08-18T13:40:23.600Z,100324.03
2022-08-18T13:42:50.326Z,100326.28
2022-08-18T13:44:57.014Z,100324.13
2022-08-18T13:47:00.919Z,100333.50
2022-08-18T13:49:06.394Z,100318.25
2022-08-18T13:51:12.247Z,100322.88
2022-08-18T13:53:19.858Z,100315.75
2022-08-18T13:55:29.329Z,100302.69
2022-08-18T13:57:33.757Z,100307.56
2022-08-18T13:59:38.552Z,100305.97
2022-08-18T14:01:52.948Z,100302.06
2022-08-18T14:03:56.910Z,100300.84
2022-08-18T14:06:03.372Z,100294.03
2022-08-18T14:08:10.828Z,100291.50
2022-08-18T14:10:15.503Z,100279.69
2022-08-18T14:12:25.980Z,100277.66
2022-08-18T14:14:32.009Z,100279.69
2022-08-18T14:16:36.469Z,100288.00
2022-08-18T14:19:09.838Z,100288.38
2022-08-18T14:21:33.085Z,100290.31
2022-08-18T14:23:54.079Z,100290.16
2022-08-18T14:26:15.527Z,100294.50
2022-08-18T14:28:24.803Z,100310.50
2022-08-18T14:30:29.342Z,100299.50
2022-08-18T14:32:36.174Z,100303.00
2022-08-18T14:34:40.135Z,100292.78
2022-08-18T14:36:56.187Z,100282.81
2022-08-18T14:39:00.732Z,100277.53
2022-08-18T14:41:07.415Z,100270.38
2022-08-18T14:43:11.464Z,100264.25
2022-08-18T14:45:27.934Z,100262.31
2022-08-18T14:47:38.248Z,100252.91
2022-08-18T14:49:43.074Z,100255.53
2022-08-18T14:51:52.232Z,100253.59
2022-08-18T14:53:57.285Z,100261.94
2022-08-18T14:56:01.418Z,100253.69
2022-08-18T14:58:07.268Z,100251.25
2022-08-18T15:00:14.602Z,100258.59
2022-08-18T15:02:18.605Z,100256.19
2022-08-18T15:04:23.269Z,100253.09
2022-08-18T15:06:27.105Z,100248.53
2022-08-18T15:08:32.800Z,100266.13
2022-08-18T15:10:38.317Z,100287.81
2022-08-18T15:12:43.800Z,100292.19
2022-08-18T15:14:48.478Z,100290.34
2022-08-18T15:16:59.845Z,100289.94
2022-08-18T15:19:03.980Z,100284.63
2022-08-18T15:21:45.213Z,100286.41
2022-08-18T15:24:19.584Z,100298.09
2022-08-18T15:26:27.153Z,100287.00
2022-08-18T15:28:33.723Z,100287.56
2022-08-18T15:30:37.801Z,100288.78
2022-08-18T15:32:51.769Z,100274.28
2022-08-18T15:34:55.682Z,100288.97
2022-08-18T15:37:09.719Z,100280.00
2022-08-18T15:39:13.930Z,100282.06
2022-08-18T15:41:33.088Z,100280.38
2022-08-18T15:43:40.004Z,100296.19
2022-08-18T15:45:56.218Z,100283.88
2022-08-18T15:48:03.463Z,100275.03
2022-08-18T15:50:21.805Z,100286.56
2022-08-18T15:52:30.113Z,100289.53
2022-08-18T15:54:33.649Z,100290.22
2022-08-18T15:56:38.850Z,100288.34
2022-08-18T15:58:48.010Z,100291.22
2022-08-18T16:00:53.513Z,100290.09
2022-08-18T16:03:00.283Z,100295.88
2022-08-18T16:05:10.303Z,100296.88
2022-08-18T16:07:15.791Z,100302.09
2022-08-18T16:09:21.990Z,100288.59
2022-08-18T16:11:29.505Z,100296.50
2022-08-18T16:13:35.201Z,100305.28
2022-08-18T16:15:40.869Z,100303.41
2022-08-18T16:17:45.004Z,100298.00
2022-08-18T16:19:51.275Z,100310.00
2022-08-18T16:21:56.852Z,100297.06
2022-08-18T16:24:00.457Z,100299.19
2022-08-18T16:26:04.280Z,100307.16
2022-08-18T16:28:08.132Z,100306.22
2022-08-18T16:30:16.621Z,100306.75
2022-08-18T16:32:20.176Z,100311.84
2022-08-18T16:34:24.338Z,100311.19
2022-08-18T16:36:27.875Z,100311.19
2022-08-18T16:38:31.515Z,100317.41
2022-08-18T16:40:35.026Z,100317.25
2022-08-18T16:42:38.785Z,100324.75
2022-08-18T16:44:42.529Z,100323.75
2022-08-18T16:46:47.845Z,100322.56
2022-08-18T16:48:51.709Z,100323.38
2022-08-18T16:50:55.516Z,100322.56
2022-08-18T16:52:59.100Z,100318.84
2022-08-18T16:55:02.768Z,100313.09
2022-08-18T16:57:06.424Z,100315.22
2022-08-18T16:59:27.551Z,100327.50
2022-08-18T17:01:49.572Z,100301.22
2022-08-18T17:04:20.632Z,100325.63
2022-08-18T17:06:29.054Z,100337.28
2022-08-18T17:08:34.469Z,100319.44
2022-08-18T17:10:40.251Z,100321.94
2022-08-18T17:12:44.007Z,100324.44
2022-08-18T17:14:51.701Z,100327.31
2022-08-18T17:16:56.384Z,100322.13
2022-08-18T17:19:02.002Z,100324.31
2022-08-18T17:21:06.653Z,100332.97
2022-08-18T17:23:10.271Z,100319.19
2022-08-18T17:25:18.255Z,100321.25
2022-08-18T17:27:37.539Z,100326.16
2022-08-18T17:29:48.378Z,100319.63
2022-08-18T17:31:54.855Z,100321.00
2022-08-18T17:34:05.667Z,100320.88
2022-08-18T17:36:18.170Z,100323.78
2022-08-18T17:38:28.303Z,100317.25
2022-08-18T17:40:40.576Z,100325.84
2022-08-18T17:42:44.426Z,100328.09
2022-08-18T17:44:52.553Z,100326.59
2022-08-18T17:46:59.708Z,100326.94
2022-08-18T17:49:12.485Z,100325.78
2022-08-18T17:51:35.253Z,100329.19
2022-08-18T17:53:38.932Z,100334.44
2022-08-18T17:55:48.692Z,100334.28
2022-08-18T17:57:59.306Z,100328.59
2022-08-18T18:00:08.223Z,100334.88
2022-08-18T18:02:30.036Z,100348.66
2022-08-18T18:04:35.763Z,100357.63
2022-08-18T18:06:42.470Z,100357.25
2022-08-18T18:08:53.374Z,100365.69
2022-08-18T18:11:12.244Z,100373.06
2022-08-18T18:13:27.317Z,100387.41
2022-08-18T18:15:33.411Z,100390.56
2022-08-18T18:17:39.588Z,100378.31
2022-08-18T18:19:47.027Z,100388.25
2022-08-18T18:22:04.841Z,100399.19
2022-08-18T18:24:16.454Z,100400.53
2022-08-18T18:26:30.332Z,100397.16
2022-08-18T18:28:36.313Z,100410.56
2022-08-18T18:30:39.915Z,100411.38
2022-08-18T18:32:59.310Z,100409.53
2022-08-18T18:35:12.877Z,100419.75
2022-08-18T18:37:24.895Z,100423.09
2022-08-18T18:39:33.948Z,100431.97
2022-08-18T18:41:41.096Z,100436.13
2022-08-18T18:43:47.247Z,100456.25
2022-08-18T18:46:07.857Z,100451.69
2022-08-18T18:48:48.128Z,100447.97
2022-08-18T18:50:56.141Z,100459.00
2022-08-18T18:53:11.294Z,100457.28
2022-08-18T18:55:19.003Z,100469.66
2022-08-18T18:57:40.013Z,100471.09
2022-08-18T19:02:13.511Z,100479.56
2022-08-18T19:04:38.777Z,100471.16
2022-08-18T19:06:52.394Z,100480.81
2022-08-18T19:09:04.594Z,100483.81
2022-08-18T19:11:25.997Z,100486.94
2022-08-18T19:13:35.173Z,100490.09
2022-08-18T19:15:41.981Z,100485.88
2022-08-18T19:17:50.701Z,100491.00
2022-08-18T19:19:59.086Z,100502.88
2022-08-18T19:22:10.470Z,100498.16
2022-08-18T19:24:20.241Z,100504.97
2022-08-18T19:26:28.847Z,100502.91
2022-08-18T19:29:12.023Z,100507.88
2022-08-18T19:31:07.030Z,100508.19
2022-08-18T19:33:16.153Z,100507.78
2022-08-18T19:35:35.906Z,100509.09
2022-08-18T19:37:59.010Z,100505.03
2022-08-18T19:40:11.850Z,100509.72
2022-08-18T19:42:22.952Z,100503.81
2022-08-18T19:44:36.027Z,100511.13
2022-08-18T19:46:47.134Z,100517.66
2022-08-18T19:48:56.059Z,100516.94
2022-08-18T19:51:07.062Z,100522.78
2022-08-18T19:53:33.582Z,100521.38
2022-08-18T19:55:54.883Z,100527.88
2022-08-18T19:58:32.266Z,100521.97
2022-08-18T20:00:46.466Z,100527.91
2022-08-18T20:03:14.751Z,100535.53
2022-08-18T20:05:29.354Z,100543.88
2022-08-18T20:07:57.588Z,100546.97
2022-08-18T20:10:27.293Z,100551.63
2022-08-18T20:12:50.143Z,100558.97
2022-08-18T20:15:01.995Z,100562.25
2022-08-18T20:17:23.204Z,100573.09
2022-08-18T20:19:47.010Z,100568.88
2022-08-18T20:22:02.954Z,100571.97
2022-08-18T20:24:13.908Z,100567.75
2022-08-18T20:26:44.210Z,100574.53
2022-08-18T20:28:48.319Z,100574.00
2022-08-18T20:31:05.173Z,100575.13
2022-08-18T20:33:16.743Z,100580.06
2022-08-18T20:35:26.913Z,100584.84
2022-08-18T20:37:32.297Z,100584.16
2022-08-18T20:39:46.482Z,100590.47
2022-08-18T20:41:52.084Z,100587.13
2022-08-18T20:44:00.651Z,100587.25
2022-08-18T20:46:24.387Z,100593.03
2022-08-18T20:48:41.204Z,100593.31
2022-08-18T20:50:58.408Z,100596.25
2022-08-18T20:53:11.072Z,100604.72
2022-08-18T20:55:26.410Z,100607.53
2022-08-18T20:57:37.055Z,100610.22
2022-08-18T20:59:46.697Z,100616.53
2022-08-18T21:01:58.955Z,100611.34
2022-08-18T21:04:02.592Z,100612.31
2022-08-18T21:06:07.145Z,100613.44
2022-08-18T21:08:25.028Z,100616.41
2022-08-18T21:10:30.103Z,100615.72
2022-08-18T21:12:36.468Z,100612.47
2022-08-18T21:14:40.254Z,100613.75
2022-08-18T21:16:46.885Z,100613.88
2022-08-18T21:18:52.276Z,100608.09
2022-08-18T21:20:58.459Z,100616.25
2022-08-18T21:23:10.528Z,100619.06
2022-08-18T21:25:17.038Z,100615.66
2022-08-18T21:27:26.541Z,100615.81
2022-08-18T21:29:47.512Z,100619.34
2022-08-18T21:31:53.081Z,100622.13
2022-08-18T21:33:59.091Z,100622.56
2022-08-18T21:36:12.363Z,100618.63
2022-08-18T21:38:16.176Z,100621.72
2022-08-18T21:40:19.929Z,100615.66
2022-08-18T21:42:28.083Z,100610.59
2022-08-18T21:44:41.833Z,100618.75
2022-08-18T21:46:47.457Z,100613.53
2022-08-18T21:48:53.979Z,100612.81
2022-08-18T21:51:02.262Z,100618.31
2022-08-18T21:53:17.349Z,100611.41
2022-08-18T21:55:27.032Z,100614.22
2022-08-18T21:57:49.359Z,100613.50
2022-08-18T22:00:18.333Z,100614.75
2022-08-18T22:02:22.875Z,100608.84
2022-08-18T22:04:30.786Z,100612.50
2022-08-18T22:06:40.521Z,100612.78
2022-08-18T22:08:50.035Z,100615.69
2022-08-18T22:12:02.144Z,100615.16
2022-08-18T22:14:20.792Z,100618.22
2022-08-18T22:16:32.276Z,100620.31
2022-08-18T22:18:41.973Z,100614.13
2022-08-18T22:20:49.334Z,100626.78
2022-08-18T22:23:09.990Z,100623.38
2022-08-18T22:25:13.812Z,100620.84
2022-08-18T22:27:22.457Z,100640.50
2022-08-18T22:29:32.754Z,100628.16
2022-08-18T22:31:40.101Z,100629.00
2022-08-18T22:33:43.660Z,100629.97
2022-08-18T22:35:55.137Z,100624.78
2022-08-18T22:37:59.525Z,100629.28
2022-08-18T22:40:09.691Z,100629.28
2022-08-18T22:42:15.781Z,100628.69
2022-08-18T22:44:19.381Z,100621.53
2022-08-18T22:46:24.674Z,100624.22
2022-08-18T22:48:29.804Z,100624.22
2022-08-18T22:50:33.361Z,100629.41
2022-08-18T22:52:41.704Z,100622.25
2022-08-18T22:54:45.313Z,100629.56
2022-08-18T22:56:55.192Z,100632.22
2022-08-18T22:59:00.319Z,100632.09
2022-08-18T23:01:10.974Z,100626.75
2022-08-18T23:03:14.522Z,100617.88
2022-08-18T23:05:19.551Z,100620.53
2022-08-18T23:07:24.000Z,100623.06
2022-08-18T23:09:29.846Z,100631.22
2022-08-18T23:11:33.762Z,100630.53
2022-08-18T23:13:38.091Z,100635.88
2022-08-18T23:15:47.822Z,100633.47
2022-08-18T23:17:51.271Z,100637.13
2022-08-18T23:19:54.891Z,100636.25
2022-08-18T23:22:00.225Z,100636.38
2022-08-18T23:24:04.749Z,100627.81
2022-08-18T23:26:09.673Z,100620.91
2022-08-18T23:28:15.944Z,100620.19
2022-08-18T23:30:19.621Z,100622.16
2022-08-18T23:32:23.316Z,100624.84
2022-08-18T23:34:36.791Z,100614.41
2022-08-18T23:36:45.398Z,100629.00
2022-08-18T23:38:50.824Z,100622.94
2022-08-18T23:40:55.715Z,100623.94
2022-08-18T23:42:59.625Z,100631.09
2022-08-18T23:45:05.617Z,100627.47
2022-08-18T23:47:09.165Z,100634.72
2022-08-18T23:49:14.806Z,100645.53
2022-08-18T23:51:30.357Z,100642.16
2022-08-18T23:53:34.024Z,100640.72
2022-08-18T23:55:39.537Z,100638.28
2022-08-18T23:57:43.201Z,100636.59
2022-08-18T23:59:46.767Z,100640.50
